createdAt,value
2018-12-05T00:01:09.642Z,99028.30
2018-12-05T00:03:39.717Z,99027.98
2018-12-05T00:06:09.047Z,99025.55
2018-12-05T00:08:38.526Z,99024.48
2018-12-05T00:11:08.342Z,99027.46
2018-12-05T00:13:38.385Z,99025.55
2018-12-05T00:16:07.766Z,99029.56
2018-12-05T00:18:37.882Z,99026.28
2018-12-05T00:21:08.227Z,99029.72
2018-12-05T00:23:38.374Z,99031.06
2018-12-05T00:26:07.575Z,99031.88
2018-12-05T00:28:36.924Z,99041.27
2018-12-05T00:31:06.329Z,99033.28
2018-12-05T00:33:36.216Z,99030.60
2018-12-05T00:36:05.543Z,99028.50
2018-12-05T00:38:34.810Z,99023.03
2018-12-05T00:41:07.169Z,99023.71
2018-12-05T00:43:36.619Z,99025.63
2018-12-05T00:46:06.409Z,99023.60
2018-12-05T00:48:35.821Z,99026.91
2018-12-05T00:51:05.700Z,99028.22
2018-12-05T00:53:35.142Z,99022.31
2018-12-05T00:56:04.632Z,99017.78
2018-12-05T00:58:34.317Z,99020.57
2018-12-05T01:01:05.692Z,99023.30
2018-12-05T01:03:35.690Z,99021.14
2018-12-05T01:06:05.860Z,99024.09
2018-12-05T01:08:36.067Z,99028.42
2018-12-05T01:11:05.490Z,99021.61
2018-12-05T01:13:35.743Z,99026.91
2018-12-05T01:16:05.592Z,99032.82
2018-12-05T01:18:36.120Z,99034.16
2018-12-05T01:21:06.041Z,99036.28
2018-12-05T01:23:35.294Z,99036.27
2018-12-05T01:26:04.684Z,99030.84
2018-12-05T01:28:34.491Z,99034.31
2018-12-05T01:31:03.919Z,99036.73
2018-12-05T01:33:34.157Z,99046.38
2018-12-05T01:36:04.472Z,99038.34
2018-12-05T01:38:33.947Z,99036.59
2018-12-05T01:41:03.910Z,99043.09
2018-12-05T01:43:39.303Z,99040.94
2018-12-05T01:46:08.642Z,99028.61
2018-12-05T01:48:38.781Z,99025.63
2018-12-05T01:51:08.405Z,99022.38
2018-12-05T01:53:38.572Z,99015.41
2018-12-05T01:56:07.880Z,99016.17
2018-12-05T01:58:37.287Z,99020.70
2018-12-05T02:01:07.225Z,99014.53
2018-12-05T02:03:37.394Z,99014.83
2018-12-05T02:06:06.790Z,99009.63
2018-12-05T02:08:36.034Z,99003.65
2018-12-05T02:11:05.329Z,99002.50
2018-12-05T02:13:34.570Z,99000.53
2018-12-05T02:16:05.495Z,98994.02
2018-12-05T02:18:35.798Z,99000.53
2018-12-05T02:21:05.077Z,98995.75
2018-12-05T02:23:34.418Z,98999.19
2018-12-05T02:26:04.447Z,98989.44
2018-12-05T02:28:33.692Z,98981.59
2018-12-05T02:31:03.799Z,98981.20
2018-12-05T02:33:33.315Z,98991.80
2018-12-05T02:36:02.936Z,98995.36
2018-12-05T02:38:32.524Z,98999.38
2018-12-05T02:41:01.977Z,99004.67
2018-12-05T02:43:32.061Z,98992.56
2018-12-05T02:46:02.391Z,98992.86
2018-12-05T02:48:31.677Z,98981.66
2018-12-05T02:51:01.268Z,98974.51
2018-12-05T02:53:30.613Z,98974.02
2018-12-05T02:55:59.920Z,98971.97
2018-12-05T02:58:30.043Z,98965.28
2018-12-05T03:00:59.496Z,98953.17
2018-12-05T03:03:29.576Z,98943.47
2018-12-05T03:05:59.067Z,98952.59
2018-12-05T03:08:29.042Z,98954.81
2018-12-05T03:12:22.838Z,98964.70
2018-12-05T03:14:52.336Z,98963.50
2018-12-05T03:17:21.620Z,98955.33
2018-12-05T03:19:50.867Z,98954.91
2018-12-05T03:22:20.415Z,98958.91
2018-12-05T03:24:49.890Z,98961.89
2018-12-05T03:27:19.287Z,98980.37
2018-12-05T03:29:48.555Z,98978.98
2018-12-05T03:32:20.081Z,98988.58
2018-12-05T03:34:50.228Z,98993.36
2018-12-05T03:37:21.378Z,98996.91
2018-12-05T03:39:51.287Z,98986.61
2018-12-05T03:42:20.582Z,98990.96
2018-12-05T03:44:49.935Z,98990.81
2018-12-05T03:47:19.159Z,98989.93
2018-12-05T03:49:53.956Z,99001.48
2018-12-05T03:52:23.436Z,98998.80
2018-12-05T03:54:53.111Z,99010.21
2018-12-05T03:57:22.567Z,99006.66
2018-12-05T03:59:51.928Z,99007.14
2018-12-05T04:02:22.102Z,99006.08
2018-12-05T04:04:52.290Z,99002.70
2018-12-05T04:07:22.450Z,99001.33
2018-12-05T04:09:51.720Z,99003.31
2018-12-05T04:12:20.953Z,99002.55
2018-12-05T04:14:51.118Z,99000.91
2018-12-05T04:17:21.230Z,98988.68
2018-12-05T04:19:50.527Z,98977.52
2018-12-05T04:22:19.977Z,98966.30
2018-12-05T04:24:49.662Z,98966.81
2018-12-05T04:27:19.097Z,98973.17
2018-12-05T04:29:49.067Z,98977.70
2018-12-05T04:32:18.651Z,98971.28
2018-12-05T04:34:48.048Z,98967.27
2018-12-05T04:37:18.921Z,98978.46
2018-12-05T04:39:48.249Z,98978.41
2018-12-05T04:42:17.644Z,98982.54
2018-12-05T04:44:47.084Z,98976.42
2018-12-05T04:47:16.434Z,98980.05
2018-12-05T04:49:45.712Z,98977.06
2018-12-05T04:52:15.331Z,98969.62
2018-12-05T04:54:45.466Z,98978.46
2018-12-05T04:57:14.871Z,98981.91
2018-12-05T04:59:44.127Z,98982.23
2018-12-05T05:02:13.528Z,98979.63
2018-12-05T05:04:43.595Z,98984.00
2018-12-05T05:07:13.668Z,98981.02
2018-12-05T05:09:43.074Z,98978.65
2018-12-05T05:12:12.351Z,98978.65
2018-12-05T05:14:41.807Z,98975.36
2018-12-05T05:17:11.514Z,98966.55
2018-12-05T05:19:40.714Z,98979.37
2018-12-05T05:22:09.963Z,98977.95
2018-12-05T05:24:39.187Z,98977.06
2018-12-05T05:27:08.552Z,98977.83
2018-12-05T05:29:38.093Z,98976.30
2018-12-05T05:32:07.727Z,98977.64
2018-12-05T05:34:37.022Z,98976.80
2018-12-05T05:37:06.484Z,98991.27
2018-12-05T05:39:36.572Z,98992.60
2018-12-05T05:42:06.465Z,98999.81
2018-12-05T05:44:35.884Z,99007.08
2018-12-05T05:47:05.313Z,98999.23
2018-12-05T05:49:34.847Z,99004.58
2018-12-05T05:52:04.438Z,99004.28
2018-12-05T05:54:34.786Z,99003.77
2018-12-05T05:57:04.512Z,98990.87
2018-12-05T05:59:34.028Z,98991.08
2018-12-05T06:02:04.492Z,98990.05
2018-12-05T06:04:33.877Z,98994.33
2018-12-05T06:07:03.770Z,99005.09
2018-12-05T06:09:33.067Z,99003.00
2018-12-05T06:12:03.368Z,98996.67
2018-12-05T06:14:33.268Z,99000.97
2018-12-05T06:17:02.608Z,99008.41
2018-12-05T06:19:31.825Z,99002.03
2018-12-05T06:22:01.157Z,99003.64
2018-12-05T06:24:30.936Z,98994.00
2018-12-05T06:27:00.464Z,99000.39
2018-12-05T06:29:30.006Z,99002.03
2018-12-05T06:32:00.562Z,99000.20
2018-12-05T06:34:30.057Z,98996.77
2018-12-05T06:37:00.182Z,98996.50
2018-12-05T06:39:30.595Z,99002.37
2018-12-05T06:42:00.794Z,98994.86
2018-12-05T06:44:30.802Z,99006.44
2018-12-05T06:47:00.719Z,99006.56
2018-12-05T06:49:30.338Z,99009.12
2018-12-05T06:51:59.669Z,99010.97
2018-12-05T06:54:29.661Z,99011.43
2018-12-05T06:56:59.792Z,99014.80
2018-12-05T06:59:29.148Z,99013.13
2018-12-05T07:01:58.619Z,99012.13
2018-12-05T07:04:28.306Z,99011.61
2018-12-05T07:06:57.707Z,99011.03
2018-12-05T07:09:26.962Z,99000.27
2018-12-05T07:11:56.371Z,99006.11
2018-12-05T07:14:25.737Z,99013.59
2018-12-05T07:16:55.307Z,99015.74
2018-12-05T07:19:24.898Z,99019.52
2018-12-05T07:21:55.018Z,99015.98
2018-12-05T07:24:24.389Z,99014.41
2018-12-05T07:26:54.412Z,99013.19
2018-12-05T07:29:24.561Z,99012.67
2018-12-05T07:31:54.730Z,99017.72
2018-12-05T07:34:24.162Z,99021.73
2018-12-05T07:36:53.484Z,99016.45
2018-12-05T07:39:23.505Z,99021.86
2018-12-05T07:41:53.055Z,99016.33
2018-12-05T07:44:23.354Z,99015.11
2018-12-05T07:46:53.203Z,99004.22
2018-12-05T07:49:22.413Z,99005.64
2018-12-05T07:51:51.677Z,99007.59
2018-12-05T07:54:21.664Z,99004.61
2018-12-05T07:56:50.994Z,98997.48
2018-12-05T07:59:20.263Z,98998.69
2018-12-05T08:01:49.702Z,98997.47
2018-12-05T08:04:19.179Z,98994.59
2018-12-05T08:06:48.834Z,98989.22
2018-12-05T08:09:18.275Z,98994.44
2018-12-05T08:11:47.720Z,98999.46
2018-12-05T08:14:17.243Z,99002.82
2018-12-05T08:16:46.729Z,99012.14
2018-12-05T08:19:16.092Z,99012.52
2018-12-05T08:21:45.779Z,99012.03
2018-12-05T08:24:15.282Z,99009.63
2018-12-05T08:26:45.522Z,99006.44
2018-12-05T08:29:15.727Z,99006.21
2018-12-05T08:31:45.123Z,98996.44
2018-12-05T08:34:15.183Z,98999.53
2018-12-05T08:36:44.581Z,99004.14
2018-12-05T08:39:14.277Z,99006.41
2018-12-05T08:41:43.786Z,99009.91
2018-12-05T08:44:13.212Z,98998.37
2018-12-05T08:46:43.244Z,98995.22
2018-12-05T08:49:12.506Z,98997.25
2018-12-05T08:51:41.944Z,98999.50
2018-12-05T08:54:11.851Z,99015.19
2018-12-05T08:56:41.169Z,99017.97
2018-12-05T08:59:10.448Z,99027.42
2018-12-05T09:01:40.486Z,99024.31
2018-12-05T09:04:10.342Z,99026.48
2018-12-05T09:06:41.142Z,99030.75
2018-12-05T09:09:10.742Z,99031.05
2018-12-05T09:11:40.238Z,99027.20
2018-12-05T09:14:09.608Z,99028.94
2018-12-05T09:16:38.976Z,99027.73
2018-12-05T09:19:08.487Z,99029.50
2018-12-05T09:21:38.127Z,99036.38
2018-12-05T09:24:07.507Z,99032.22
2018-12-05T09:26:37.662Z,99032.64
2018-12-05T09:29:07.703Z,99034.77
2018-12-05T09:31:37.299Z,99028.34
2018-12-05T09:34:06.854Z,99026.40
2018-12-05T09:36:36.388Z,99022.25
2018-12-05T09:39:08.647Z,99014.56
2018-12-05T09:41:38.708Z,99010.52
2018-12-05T09:44:08.784Z,99009.52
2018-12-05T09:46:38.295Z,99010.23
2018-12-05T09:49:07.702Z,99006.66
2018-12-05T09:51:37.585Z,99012.06
2018-12-05T09:54:07.199Z,99006.71
2018-12-05T09:56:36.671Z,99001.92
2018-12-05T09:59:06.143Z,98992.50
2018-12-05T10:01:35.579Z,98993.91
2018-12-05T10:04:05.612Z,98996.42
2018-12-05T10:06:35.053Z,99000.30
2018-12-05T10:09:07.667Z,98993.22
2018-12-05T10:11:37.248Z,98991.82
2018-12-05T10:14:07.101Z,98988.59
2018-12-05T10:16:36.676Z,98991.05
2018-12-05T10:19:06.779Z,98989.45
2018-12-05T10:21:36.127Z,98990.81
2018-12-05T10:24:05.409Z,98977.34
2018-12-05T10:26:34.649Z,98973.82
2018-12-05T10:29:04.753Z,98960.59
2018-12-05T10:31:33.991Z,98957.36
2018-12-05T10:34:04.202Z,98957.63
2018-12-05T10:36:33.592Z,98958.45
2018-12-05T10:39:05.834Z,98956.28
2018-12-05T10:41:36.333Z,98949.25
2018-12-05T10:44:05.863Z,98942.25
2018-12-05T10:46:36.993Z,98942.78
2018-12-05T10:49:08.222Z,98934.41
2018-12-05T10:51:37.538Z,98940.06
2018-12-05T10:54:06.809Z,98926.86
2018-12-05T10:56:36.197Z,98923.84
2018-12-05T10:59:05.885Z,98913.86
2018-12-05T11:01:40.566Z,98908.42
2018-12-05T11:04:15.322Z,98913.02
2018-12-05T11:06:49.707Z,98907.36
2018-12-05T11:09:24.393Z,98905.76
2018-12-05T11:11:59.876Z,98897.41
2018-12-05T11:14:34.271Z,98899.57
2018-12-05T11:17:08.807Z,98893.88
2018-12-05T11:19:43.465Z,98885.53
2018-12-05T11:22:18.173Z,98893.35
2018-12-05T11:24:50.006Z,98884.69
2018-12-05T11:27:19.247Z,98892.50
2018-12-05T11:29:48.633Z,98896.51
2018-12-05T11:32:18.615Z,98897.30
2018-12-05T11:34:48.773Z,98892.95
2018-12-05T11:37:18.281Z,98897.23
2018-12-05T11:39:47.923Z,98890.72
2018-12-05T11:42:17.287Z,98890.17
2018-12-05T11:44:46.798Z,98888.01
2018-12-05T11:47:16.143Z,98896.84
2018-12-05T11:49:46.123Z,98894.83
2018-12-05T11:52:15.686Z,98882.84
2018-12-05T11:54:45.446Z,98882.22
2018-12-05T11:57:14.823Z,98874.25
2018-12-05T11:59:44.148Z,98873.78
2018-12-05T12:02:13.387Z,98867.94
2018-12-05T12:04:43.346Z,98860.41
2018-12-05T12:07:12.708Z,98856.36
2018-12-05T12:09:43.123Z,98845.17
2018-12-05T12:12:17.723Z,98844.05
2018-12-05T12:14:47.099Z,98850.26
2018-12-05T12:17:16.521Z,98847.16
2018-12-05T12:19:46.902Z,98852.47
2018-12-05T12:22:16.377Z,98851.52
2018-12-05T12:24:45.889Z,98844.09
2018-12-05T12:27:16.151Z,98828.38
2018-12-05T12:29:45.629Z,98814.91
2018-12-05T12:32:15.549Z,98810.19
2018-12-05T12:34:45.086Z,98808.36
2018-12-05T12:37:15.074Z,98801.44
2018-12-05T12:39:44.516Z,98798.33
2018-12-05T12:42:14.374Z,98795.20
2018-12-05T12:44:44.656Z,98784.23
2018-12-05T12:47:14.853Z,98780.81
2018-12-05T12:49:44.183Z,98776.99
2018-12-05T12:52:13.498Z,98769.97
2018-12-05T12:54:43.122Z,98774.65
2018-12-05T12:57:12.653Z,98765.44
2018-12-05T12:59:41.963Z,98764.45
2018-12-05T13:02:11.322Z,98755.96
2018-12-05T13:04:40.698Z,98757.47
2018-12-05T13:07:10.624Z,98751.87
2018-12-05T13:09:39.951Z,98744.73
2018-12-05T13:12:12.067Z,98742.80
2018-12-05T13:14:42.112Z,98742.71
2018-12-05T13:17:11.752Z,98736.68
2018-12-05T13:19:41.578Z,98740.12
2018-12-05T13:22:10.913Z,98732.98
2018-12-05T13:24:40.482Z,98729.13
2018-12-05T13:27:10.230Z,98727.86
2018-12-05T13:29:39.500Z,98722.49
2018-12-05T13:32:08.808Z,98719.87
2018-12-05T13:34:38.443Z,98715.66
2018-12-05T13:37:08.149Z,98707.97
2018-12-05T13:39:37.450Z,98709.62
2018-12-05T13:42:07.593Z,98706.62
2018-12-05T13:44:36.848Z,98708.47
2018-12-05T13:47:06.448Z,98701.95
2018-12-05T13:49:36.105Z,98699.84
2018-12-05T13:52:06.318Z,98691.98
2018-12-05T13:54:35.734Z,98697.22
2018-12-05T13:57:05.310Z,98695.53
2018-12-05T13:59:34.703Z,98688.84
2018-12-05T14:02:04.234Z,98695.91
2018-12-05T14:04:34.399Z,98691.34
2018-12-05T14:07:04.643Z,98688.68
2018-12-05T14:09:33.998Z,98694.91
2018-12-05T14:12:03.855Z,98697.00
2018-12-05T14:14:33.278Z,98698.52
2018-12-05T14:17:02.715Z,98696.77
2018-12-05T14:19:32.704Z,98698.62
2018-12-05T14:22:02.084Z,98696.72
2018-12-05T14:24:31.636Z,98703.21
2018-12-05T14:27:01.974Z,98696.52
2018-12-05T14:29:31.443Z,98697.06
2018-12-05T14:32:00.854Z,98699.84
2018-12-05T14:34:30.916Z,98688.53
2018-12-05T14:37:00.454Z,98687.72
2018-12-05T14:39:29.986Z,98682.32
2018-12-05T14:41:59.572Z,98679.17
2018-12-05T14:44:28.944Z,98678.42
2018-12-05T14:46:58.598Z,98684.58
2018-12-05T14:49:28.150Z,98683.76
2018-12-05T14:51:57.584Z,98679.49
2018-12-05T14:54:26.961Z,98675.73
2018-12-05T14:56:56.929Z,98671.70
2018-12-05T14:59:27.021Z,98666.08
2018-12-05T15:01:56.491Z,98669.12
2018-12-05T15:04:27.403Z,98672.40
2018-12-05T15:06:57.675Z,98671.06
2018-12-05T15:09:27.944Z,98665.95
2018-12-05T15:11:58.100Z,98658.15
2018-12-05T15:14:27.335Z,98650.63
2018-12-05T15:16:57.424Z,98648.49
2018-12-05T15:19:27.932Z,98644.98
2018-12-05T15:21:57.324Z,98649.31
2018-12-05T15:24:26.972Z,98646.35
2018-12-05T15:26:57.342Z,98642.05
2018-12-05T15:29:27.626Z,98640.94
2018-12-05T15:31:58.118Z,98641.48
2018-12-05T15:34:27.815Z,98637.73
2018-12-05T15:36:58.141Z,98629.66
2018-12-05T15:39:27.545Z,98625.60
2018-12-05T15:41:57.682Z,98627.20
2018-12-05T15:44:27.500Z,98615.63
2018-12-05T15:46:57.871Z,98609.16
2018-12-05T15:49:27.292Z,98617.77
2018-12-05T15:51:57.460Z,98617.78
2018-12-05T15:54:27.466Z,98612.38
2018-12-05T15:56:56.859Z,98610.47
2018-12-05T15:59:26.517Z,98606.69
2018-12-05T16:01:56.131Z,98606.15
2018-12-05T16:04:25.687Z,98600.23
2018-12-05T16:06:55.702Z,98602.91
2018-12-05T16:09:25.516Z,98598.05
2018-12-05T16:11:55.990Z,98597.24
2018-12-05T16:14:25.242Z,98588.86
2018-12-05T16:16:55.306Z,98596.41
2018-12-05T16:19:24.811Z,98596.65
2018-12-05T16:21:54.879Z,98600.68
2018-12-05T16:24:24.315Z,98595.30
2018-12-05T16:26:54.103Z,98594.47
2018-12-05T16:29:24.412Z,98597.45
2018-12-05T16:31:53.899Z,98591.48
2018-12-05T16:34:23.827Z,98600.91
2018-12-05T16:36:53.910Z,98597.39
2018-12-05T16:39:23.482Z,98596.88
2018-12-05T16:41:53.353Z,98590.16
2018-12-05T16:44:23.553Z,98596.34
2018-12-05T16:46:53.095Z,98590.92
2018-12-05T16:49:22.365Z,98587.69
2018-12-05T16:51:52.211Z,98593.55
2018-12-05T16:54:22.398Z,98591.44
2018-12-05T16:56:52.764Z,98592.53
2018-12-05T16:59:22.162Z,98589.81
2018-12-05T17:01:51.736Z,98582.53
2018-12-05T17:04:21.321Z,98578.76
2018-12-05T17:06:50.756Z,98574.95
2018-12-05T17:09:26.118Z,98578.73
2018-12-05T17:11:52.030Z,98582.50
2018-12-05T17:14:22.088Z,98575.80
2018-12-05T17:16:51.769Z,98569.59
2018-12-05T17:19:22.636Z,98577.66
2018-12-05T17:21:52.020Z,98570.13
2018-12-05T17:24:21.960Z,98575.77
2018-12-05T17:26:51.431Z,98580.58
2018-12-05T17:29:21.060Z,98577.34
2018-12-05T17:31:50.501Z,98566.58
2018-12-05T17:34:20.037Z,98564.96
2018-12-05T17:36:50.071Z,98556.34
2018-12-05T17:39:20.108Z,98555.77
2018-12-05T17:41:49.540Z,98548.78
2018-12-05T17:44:19.521Z,98548.78
2018-12-05T17:46:49.098Z,98547.70
2018-12-05T17:49:18.801Z,98542.30
2018-12-05T17:51:48.256Z,98534.48
2018-12-05T17:54:17.715Z,98533.70
2018-12-05T17:56:47.011Z,98534.23
2018-12-05T17:59:16.882Z,98526.97
2018-12-05T18:01:46.362Z,98524.83
2018-12-05T18:04:15.962Z,98521.05
2018-12-05T18:06:45.587Z,98517.80
2018-12-05T18:09:15.078Z,98515.67
2018-12-05T18:11:44.616Z,98518.87
2018-12-05T18:14:14.190Z,98503.52
2018-12-05T18:16:43.692Z,98499.48
2018-12-05T18:19:13.518Z,98493.53
2018-12-05T18:21:42.938Z,98490.78
2018-12-05T18:24:12.570Z,98496.16
2018-12-05T18:26:42.192Z,98496.93
2018-12-05T18:29:12.318Z,98489.39
2018-12-05T18:31:41.731Z,98493.88
2018-12-05T18:34:11.281Z,98499.75
2018-12-05T18:36:41.003Z,98497.30
2018-12-05T18:39:10.379Z,98490.30
2018-12-05T18:41:40.507Z,98486.52
2018-12-05T18:44:10.648Z,98481.68
2018-12-05T18:46:40.271Z,98482.45
2018-12-05T18:49:09.779Z,98482.71
2018-12-05T18:51:39.387Z,98474.63
2018-12-05T18:54:09.596Z,98467.91
2018-12-05T18:56:39.443Z,98467.34
2018-12-05T18:59:09.052Z,98460.11
2018-12-05T19:01:39.176Z,98452.86
2018-12-05T19:04:08.658Z,98453.87
2018-12-05T19:06:38.598Z,98455.48
2018-12-05T19:09:08.947Z,98456.54
2018-12-05T19:11:40.453Z,98451.42
2018-12-05T19:14:15.870Z,98454.84
2018-12-05T19:16:45.303Z,98448.62
2018-12-05T19:19:14.800Z,98451.80
2018-12-05T19:21:44.613Z,98443.20
2018-12-05T19:24:14.200Z,98435.71
2018-12-05T19:26:44.025Z,98434.09
2018-12-05T19:29:13.415Z,98438.40
2018-12-05T19:31:43.253Z,98443.47
2018-12-05T19:34:12.745Z,98445.81
2018-12-05T19:36:42.172Z,98431.80
2018-12-05T19:39:11.773Z,98425.55
2018-12-05T19:41:41.313Z,98438.68
2018-12-05T19:44:11.622Z,98443.28
2018-12-05T19:46:41.126Z,98430.94
2018-12-05T19:49:10.835Z,98435.97
2018-12-05T19:51:41.290Z,98430.09
2018-12-05T19:54:11.207Z,98434.89
2018-12-05T19:56:40.925Z,98428.17
2018-12-05T19:59:10.451Z,98426.86
2018-12-05T20:01:39.986Z,98428.44
2018-12-05T20:04:10.193Z,98422.87
2018-12-05T20:06:39.623Z,98417.80
2018-12-05T20:09:10.787Z,98410.02
2018-12-05T20:11:40.451Z,98409.17
2018-12-05T20:14:12.378Z,98403.50
2018-12-05T20:16:42.216Z,98400.56
2018-12-05T20:19:11.601Z,98404.84
2018-12-05T20:21:41.402Z,98395.23
2018-12-05T20:24:11.110Z,98379.16
2018-12-05T20:26:41.775Z,98377.52
2018-12-05T20:29:11.523Z,98374.08
2018-12-05T20:31:41.751Z,98371.45
2018-12-05T20:34:11.312Z,98380.59
2018-12-05T20:36:40.940Z,98372.27
2018-12-05T20:39:11.428Z,98367.67
2018-12-05T20:41:41.183Z,98360.17
2018-12-05T20:44:10.722Z,98372.78
2018-12-05T20:46:40.271Z,98362.59
2018-12-05T20:49:09.998Z,98366.33
2018-12-05T20:51:40.122Z,98357.97
2018-12-05T20:54:10.438Z,98359.84
2018-12-05T20:56:40.897Z,98364.17
2018-12-05T20:59:10.637Z,98355.05
2018-12-05T21:01:40.398Z,98349.41
2018-12-05T21:04:10.033Z,98338.95
2018-12-05T21:06:40.269Z,98329.05
2018-12-05T21:09:10.393Z,98323.19
2018-12-05T21:11:39.954Z,98325.88
2018-12-05T21:14:10.108Z,98324.28
2018-12-05T21:16:39.568Z,98318.38
2018-12-05T21:19:09.129Z,98315.41
2018-12-05T21:21:38.533Z,98311.16
2018-12-05T21:24:08.332Z,98318.64
2018-12-05T21:26:38.190Z,98328.30
2018-12-05T21:29:07.707Z,98335.46
2018-12-05T21:31:37.165Z,98327.14
2018-12-05T21:34:06.628Z,98335.15
2018-12-05T21:36:36.748Z,98326.02
2018-12-05T21:39:08.794Z,98316.59
2018-12-05T21:41:38.354Z,98323.58
2018-12-05T21:44:08.328Z,98332.95
2018-12-05T21:46:38.662Z,98338.05
2018-12-05T21:49:08.013Z,98340.73
2018-12-05T21:51:37.416Z,98338.00
2018-12-05T21:54:07.177Z,98325.89
2018-12-05T21:56:36.682Z,98329.09
2018-12-05T21:59:07.066Z,98341.67
2018-12-05T22:01:36.830Z,98338.47
2018-12-05T22:04:06.579Z,98318.33
2018-12-05T22:06:36.170Z,98307.25
2018-12-05T22:09:10.367Z,98290.05
2018-12-05T22:11:39.847Z,98287.92
2018-12-05T22:14:09.871Z,98302.91
2018-12-05T22:16:39.533Z,98307.50
2018-12-05T22:19:09.090Z,98302.15
2018-12-05T22:21:38.489Z,98301.89
2018-12-05T22:24:07.752Z,98313.12
2018-12-05T22:26:37.741Z,98323.86
2018-12-05T22:29:07.172Z,98327.59
2018-12-05T22:31:36.492Z,98323.84
2018-12-05T22:34:06.051Z,98334.28
2018-12-05T22:36:35.709Z,98335.12
2018-12-05T22:39:07.919Z,98337.31
2018-12-05T22:41:37.344Z,98330.64
2018-12-05T22:44:07.250Z,98341.09
2018-12-05T22:46:36.767Z,98334.89
2018-12-05T22:49:06.316Z,98330.61
2018-12-05T22:51:35.991Z,98332.48
2018-12-05T22:54:05.599Z,98333.30
2018-12-05T22:56:35.350Z,98327.70
2018-12-05T22:59:05.412Z,98326.91
2018-12-05T23:01:36.557Z,98335.55
2018-12-05T23:04:06.857Z,98345.16
2018-12-05T23:06:36.252Z,98348.92
2018-12-05T23:09:06.812Z,98345.73
2018-12-05T23:11:38.428Z,98344.17
2018-12-05T23:14:07.840Z,98337.47
2018-12-05T23:16:37.783Z,98339.94
2018-12-05T23:19:07.217Z,98335.68
2018-12-05T23:21:36.738Z,98341.06
2018-12-05T23:24:06.134Z,98333.55
2018-12-05T23:26:36.721Z,98330.05
2018-12-05T23:29:06.115Z,98329.24
2018-12-05T23:31:35.603Z,98325.22
2018-12-05T23:34:05.230Z,98329.29
2018-12-05T23:36:35.478Z,98328.50
2018-12-05T23:39:08.101Z,98329.05
2018-12-05T23:41:37.827Z,98328.00
2018-12-05T23:44:07.179Z,98328.00
2018-12-05T23:46:36.467Z,98341.16
2018-12-05T23:49:06.058Z,98340.63
2018-12-05T23:51:35.938Z,98355.39
2018-12-05T23:54:06.043Z,98364.48
2018-12-05T23:56:35.573Z,98362.87
2018-12-05T23:59:05.222Z,98369.06
